sensor_id;sensor_type;location;lat;lon;timestamp;temperature;humidity
12115;DHT22;6121;49.810;6.418;2023-08-12T00:02:10;22.30;99.90
12115;DHT22;6121;49.810;6.418;2023-08-12T00:04:36;22.30;99.90
12115;DHT22;6121;49.810;6.418;2023-08-12T00:07:01;22.30;99.90
12115;DHT22;6121;49.810;6.418;2023-08-12T00:09:27;22.30;99.90
12115;DHT22;6121;49.810;6.418;2023-08-12T00:11:53;22.30;99.90
12115;DHT22;6121;49.810;6.418;2023-08-12T00:14:19;22.30;99.90
12115;DHT22;6121;49.810;6.418;2023-08-12T00:16:45;22.30;99.90
12115;DHT22;6121;49.810;6.418;2023-08-12T00:19:10;22.30;99.90
12115;DHT22;6121;49.810;6.418;2023-08-12T00:21:36;22.20;99.90
12115;DHT22;6121;49.810;6.418;2023-08-12T00:24:02;22.30;99.90
12115;DHT22;6121;49.810;6.418;2023-08-12T00:26:28;22.00;99.90
12115;DHT22;6121;49.810;6.418;2023-08-12T00:28:54;21.90;99.90
12115;DHT22;6121;49.810;6.418;2023-08-12T00:31:19;22.00;99.90
12115;DHT22;6121;49.810;6.418;2023-08-12T00:33:46;22.00;99.90
12115;DHT22;6121;49.810;6.418;2023-08-12T00:36:12;22.10;99.90
12115;DHT22;6121;49.810;6.418;2023-08-12T00:38:38;22.10;99.90
12115;DHT22;6121;49.810;6.418;2023-08-12T00:41:04;22.10;99.90
12115;DHT22;6121;49.810;6.418;2023-08-12T00:43:30;22.10;99.90
12115;DHT22;6121;49.810;6.418;2023-08-12T00:45:55;22.20;99.90
12115;DHT22;6121;49.810;6.418;2023-08-12T00:48:22;22.00;99.90
12115;DHT22;6121;49.810;6.418;2023-08-12T00:50:48;22.00;99.90
12115;DHT22;6121;49.810;6.418;2023-08-12T00:53:16;22.00;99.90
12115;DHT22;6121;49.810;6.418;2023-08-12T00:55:42;21.90;99.90
12115;DHT22;6121;49.810;6.418;2023-08-12T00:58:08;21.80;99.90
12115;DHT22;6121;49.810;6.418;2023-08-12T01:00:34;21.80;99.90
12115;DHT22;6121;49.810;6.418;2023-08-12T01:03:01;21.90;99.90
12115;DHT22;6121;49.810;6.418;2023-08-12T01:05:27;21.90;99.90
12115;DHT22;6121;49.810;6.418;2023-08-12T01:07:53;21.90;99.90
12115;DHT22;6121;49.810;6.418;2023-08-12T01:10:21;21.80;99.90
12115;DHT22;6121;49.810;6.418;2023-08-12T01:13:04;21.80;99.90
12115;DHT22;6121;49.810;6.418;2023-08-12T01:15:33;21.70;99.90
12115;DHT22;6121;49.810;6.418;2023-08-12T01:18:00;21.60;99.90
12115;DHT22;6121;49.810;6.418;2023-08-12T01:20:28;21.60;99.90
12115;DHT22;6121;49.810;6.418;2023-08-12T01:22:57;21.70;99.90
12115;DHT22;6121;49.810;6.418;2023-08-12T01:25:27;21.60;99.90
12115;DHT22;6121;49.810;6.418;2023-08-12T01:27:53;21.70;99.90
12115;DHT22;6121;49.810;6.418;2023-08-12T01:30:20;21.70;99.90
12115;DHT22;6121;49.810;6.418;2023-08-12T01:33:00;21.50;99.90
12115;DHT22;6121;49.810;6.418;2023-08-12T01:35:35;21.40;99.90
12115;DHT22;6121;49.810;6.418;2023-08-12T01:38:04;21.40;99.90
12115;DHT22;6121;49.810;6.418;2023-08-12T01:40:31;21.40;99.90
12115;DHT22;6121;49.810;6.418;2023-08-12T01:42:58;21.40;99.90
12115;DHT22;6121;49.810;6.418;2023-08-12T01:45:25;21.40;99.90
12115;DHT22;6121;49.810;6.418;2023-08-12T01:47:51;21.40;99.90
12115;DHT22;6121;49.810;6.418;2023-08-12T01:50:17;21.40;99.90
12115;DHT22;6121;49.810;6.418;2023-08-12T01:52:44;21.50;99.90
12115;DHT22;6121;49.810;6.418;2023-08-12T01:55:10;21.50;99.90
12115;DHT22;6121;49.810;6.418;2023-08-12T01:57:36;21.40;99.90
12115;DHT22;6121;49.810;6.418;2023-08-12T02:00:04;21.40;99.90
12115;DHT22;6121;49.810;6.418;2023-08-12T02:02:42;21.40;99.90
12115;DHT22;6121;49.810;6.418;2023-08-12T02:05:11;21.40;99.90
12115;DHT22;6121;49.810;6.418;2023-08-12T02:07:37;21.40;99.90
12115;DHT22;6121;49.810;6.418;2023-08-12T02:10:03;21.40;99.90
12115;DHT22;6121;49.810;6.418;2023-08-12T02:12:31;21.30;99.90
12115;DHT22;6121;49.810;6.418;2023-08-12T02:14:56;21.30;99.90
12115;DHT22;6121;49.810;6.418;2023-08-12T02:17:23;21.30;99.90
12115;DHT22;6121;49.810;6.418;2023-08-12T02:19:51;21.20;99.90
12115;DHT22;6121;49.810;6.418;2023-08-12T02:22:17;21.10;99.90
12115;DHT22;6121;49.810;6.418;2023-08-12T02:24:43;21.10;99.90
12115;DHT22;6121;49.810;6.418;2023-08-12T02:27:08;21.00;99.90
12115;DHT22;6121;49.810;6.418;2023-08-12T02:29:34;21.00;99.90
12115;DHT22;6121;49.810;6.418;2023-08-12T02:32:00;21.00;99.90
12115;DHT22;6121;49.810;6.418;2023-08-12T02:34:26;20.90;99.90
12115;DHT22;6121;49.810;6.418;2023-08-12T02:36:52;20.70;99.90
12115;DHT22;6121;49.810;6.418;2023-08-12T02:39:18;20.80;99.90
12115;DHT22;6121;49.810;6.418;2023-08-12T02:41:44;20.90;99.90
12115;DHT22;6121;49.810;6.418;2023-08-12T02:44:10;20.80;99.90
12115;DHT22;6121;49.810;6.418;2023-08-12T02:46:35;20.80;99.90
12115;DHT22;6121;49.810;6.418;2023-08-12T02:49:01;20.70;99.90
12115;DHT22;6121;49.810;6.418;2023-08-12T02:51:27;20.60;99.90
12115;DHT22;6121;49.810;6.418;2023-08-12T02:53:53;20.60;99.90
12115;DHT22;6121;49.810;6.418;2023-08-12T02:56:19;20.40;99.90
12115;DHT22;6121;49.810;6.418;2023-08-12T02:58:45;20.40;99.90
12115;DHT22;6121;49.810;6.418;2023-08-12T03:01:11;20.50;99.90
12115;DHT22;6121;49.810;6.418;2023-08-12T03:03:36;20.50;99.90
12115;DHT22;6121;49.810;6.418;2023-08-12T03:06:02;20.50;99.90
12115;DHT22;6121;49.810;6.418;2023-08-12T03:08:29;20.50;99.90
12115;DHT22;6121;49.810;6.418;2023-08-12T03:10:59;20.50;99.90
12115;DHT22;6121;49.810;6.418;2023-08-12T03:13:26;20.40;99.90
12115;DHT22;6121;49.810;6.418;2023-08-12T03:15:52;20.30;99.90
12115;DHT22;6121;49.810;6.418;2023-08-12T03:18:18;20.30;99.90
12115;DHT22;6121;49.810;6.418;2023-08-12T03:20:45;20.20;99.90
12115;DHT22;6121;49.810;6.418;2023-08-12T03:23:11;20.10;99.90
12115;DHT22;6121;49.810;6.418;2023-08-12T03:25:38;20.10;99.90
12115;DHT22;6121;49.810;6.418;2023-08-12T03:28:04;20.10;99.90
12115;DHT22;6121;49.810;6.418;2023-08-12T03:30:30;20.00;99.90
12115;DHT22;6121;49.810;6.418;2023-08-12T03:32:57;20.00;99.90
12115;DHT22;6121;49.810;6.418;2023-08-12T03:35:25;20.10;99.90
12115;DHT22;6121;49.810;6.418;2023-08-12T03:37:51;20.20;99.90
12115;DHT22;6121;49.810;6.418;2023-08-12T03:40:19;20.20;99.90
12115;DHT22;6121;49.810;6.418;2023-08-12T03:42:46;20.30;99.90
12115;DHT22;6121;49.810;6.418;2023-08-12T03:45:12;20.20;99.90
12115;DHT22;6121;49.810;6.418;2023-08-12T03:47:38;20.10;99.90
12115;DHT22;6121;49.810;6.418;2023-08-12T03:50:04;20.20;99.90
12115;DHT22;6121;49.810;6.418;2023-08-12T03:52:31;20.20;99.90
12115;DHT22;6121;49.810;6.418;2023-08-12T03:54:57;20.10;99.90
12115;DHT22;6121;49.810;6.418;2023-08-12T03:57:23;20.20;99.90
12115;DHT22;6121;49.810;6.418;2023-08-12T03:59:49;20.20;99.90
12115;DHT22;6121;49.810;6.418;2023-08-12T04:02:15;20.10;99.90
12115;DHT22;6121;49.810;6.418;2023-08-12T04:04:41;20.10;99.90
12115;DHT22;6121;49.810;6.418;2023-08-12T04:07:09;20.10;99.90
12115;DHT22;6121;49.810;6.418;2023-08-12T04:09:35;20.00;99.90
12115;DHT22;6121;49.810;6.418;2023-08-12T04:12:01;20.00;99.90
12115;DHT22;6121;49.810;6.418;2023-08-12T04:14:27;19.90;99.90
12115;DHT22;6121;49.810;6.418;2023-08-12T04:16:53;20.00;99.90
12115;DHT22;6121;49.810;6.418;2023-08-12T04:19:19;20.00;99.90
12115;DHT22;6121;49.810;6.418;2023-08-12T04:21:44;20.00;99.90
12115;DHT22;6121;49.810;6.418;2023-08-12T04:24:12;20.00;99.90
12115;DHT22;6121;49.810;6.418;2023-08-12T04:26:38;19.90;99.90
12115;DHT22;6121;49.810;6.418;2023-08-12T04:29:05;19.80;99.90
12115;DHT22;6121;49.810;6.418;2023-08-12T04:31:32;19.90;99.90
12115;DHT22;6121;49.810;6.418;2023-08-12T04:33:58;19.90;99.90
12115;DHT22;6121;49.810;6.418;2023-08-12T04:36:25;20.00;99.90
12115;DHT22;6121;49.810;6.418;2023-08-12T04:38:51;20.20;99.90
12115;DHT22;6121;49.810;6.418;2023-08-12T04:41:17;20.00;99.90
12115;DHT22;6121;49.810;6.418;2023-08-12T04:43:44;20.10;99.90
12115;DHT22;6121;49.810;6.418;2023-08-12T04:46:11;20.10;99.90
12115;DHT22;6121;49.810;6.418;2023-08-12T04:48:37;19.90;99.90
12115;DHT22;6121;49.810;6.418;2023-08-12T04:51:02;19.90;99.90
12115;DHT22;6121;49.810;6.418;2023-08-12T04:53:29;20.00;99.90
12115;DHT22;6121;49.810;6.418;2023-08-12T04:55:56;20.10;99.90
12115;DHT22;6121;49.810;6.418;2023-08-12T04:58:22;20.00;99.90
12115;DHT22;6121;49.810;6.418;2023-08-12T05:00:50;20.00;99.90
12115;DHT22;6121;49.810;6.418;2023-08-12T05:03:18;20.00;99.90
12115;DHT22;6121;49.810;6.418;2023-08-12T05:05:49;20.00;99.90
12115;DHT22;6121;49.810;6.418;2023-08-12T05:08:15;20.00;99.90
12115;DHT22;6121;49.810;6.418;2023-08-12T05:10:41;20.00;99.90
12115;DHT22;6121;49.810;6.418;2023-08-12T05:13:09;20.10;99.90
12115;DHT22;6121;49.810;6.418;2023-08-12T05:15:35;20.00;99.90
12115;DHT22;6121;49.810;6.418;2023-08-12T05:18:03;20.00;99.90
12115;DHT22;6121;49.810;6.418;2023-08-12T05:20:29;20.00;99.90
12115;DHT22;6121;49.810;6.418;2023-08-12T05:22:55;20.00;99.90
12115;DHT22;6121;49.810;6.418;2023-08-12T05:25:20;20.00;99.90
12115;DHT22;6121;49.810;6.418;2023-08-12T05:27:46;20.00;99.90
12115;DHT22;6121;49.810;6.418;2023-08-12T05:30:12;20.00;99.90
12115;DHT22;6121;49.810;6.418;2023-08-12T05:32:38;20.00;99.90
12115;DHT22;6121;49.810;6.418;2023-08-12T05:35:04;20.00;99.90
12115;DHT22;6121;49.810;6.418;2023-08-12T05:37:30;20.00;99.90
12115;DHT22;6121;49.810;6.418;2023-08-12T05:39:56;20.10;99.90
12115;DHT22;6121;49.810;6.418;2023-08-12T05:42:22;20.10;99.90
12115;DHT22;6121;49.810;6.418;2023-08-12T05:44:48;20.10;99.90
12115;DHT22;6121;49.810;6.418;2023-08-12T05:47:13;20.10;99.90
12115;DHT22;6121;49.810;6.418;2023-08-12T05:49:39;20.10;99.90
12115;DHT22;6121;49.810;6.418;2023-08-12T05:52:05;20.20;99.90
12115;DHT22;6121;49.810;6.418;2023-08-12T05:54:31;20.10;99.90
12115;DHT22;6121;49.810;6.418;2023-08-12T05:56:57;20.10;99.90
12115;DHT22;6121;49.810;6.418;2023-08-12T05:59:23;20.20;99.90
12115;DHT22;6121;49.810;6.418;2023-08-12T06:01:49;20.30;99.90
12115;DHT22;6121;49.810;6.418;2023-08-12T06:04:14;20.40;99.90
12115;DHT22;6121;49.810;6.418;2023-08-12T06:06:41;20.40;99.90
12115;DHT22;6121;49.810;6.418;2023-08-12T06:09:07;20.20;99.90
12115;DHT22;6121;49.810;6.418;2023-08-12T06:11:33;20.40;99.90
12115;DHT22;6121;49.810;6.418;2023-08-12T06:13:59;20.40;99.90
12115;DHT22;6121;49.810;6.418;2023-08-12T06:16:25;20.40;99.90
12115;DHT22;6121;49.810;6.418;2023-08-12T06:18:51;20.40;99.90
12115;DHT22;6121;49.810;6.418;2023-08-12T06:21:16;20.40;99.90
12115;DHT22;6121;49.810;6.418;2023-08-12T06:23:42;20.50;99.90
12115;DHT22;6121;49.810;6.418;2023-08-12T06:26:08;20.50;99.90
12115;DHT22;6121;49.810;6.418;2023-08-12T06:28:34;20.50;99.90
12115;DHT22;6121;49.810;6.418;2023-08-12T06:31:00;20.50;99.90
12115;DHT22;6121;49.810;6.418;2023-08-12T06:33:26;20.60;99.90
12115;DHT22;6121;49.810;6.418;2023-08-12T06:35:51;20.50;99.90
12115;DHT22;6121;49.810;6.418;2023-08-12T06:38:17;20.50;99.90
12115;DHT22;6121;49.810;6.418;2023-08-12T06:40:43;20.60;99.90
12115;DHT22;6121;49.810;6.418;2023-08-12T06:43:09;20.60;99.90
12115;DHT22;6121;49.810;6.418;2023-08-12T06:45:36;20.70;99.90
12115;DHT22;6121;49.810;6.418;2023-08-12T06:48:01;20.70;99.90
12115;DHT22;6121;49.810;6.418;2023-08-12T06:50:28;20.80;99.90
12115;DHT22;6121;49.810;6.418;2023-08-12T06:52:53;20.80;99.90
12115;DHT22;6121;49.810;6.418;2023-08-12T06:55:19;20.90;99.90
12115;DHT22;6121;49.810;6.418;2023-08-12T06:57:45;20.80;99.90
12115;DHT22;6121;49.810;6.418;2023-08-12T07:00:11;21.00;99.90
12115;DHT22;6121;49.810;6.418;2023-08-12T07:02:37;21.00;99.90
12115;DHT22;6121;49.810;6.418;2023-08-12T07:05:03;21.00;99.90
12115;DHT22;6121;49.810;6.418;2023-08-12T07:07:29;21.10;99.90
12115;DHT22;6121;49.810;6.418;2023-08-12T07:09:55;21.10;99.90
12115;DHT22;6121;49.810;6.418;2023-08-12T07:12:21;21.20;99.90
12115;DHT22;6121;49.810;6.418;2023-08-12T07:14:46;21.20;99.90
12115;DHT22;6121;49.810;6.418;2023-08-12T07:17:12;21.40;99.90
12115;DHT22;6121;49.810;6.418;2023-08-12T07:19:38;21.50;99.90
12115;DHT22;6121;49.810;6.418;2023-08-12T07:22:03;21.60;99.90
12115;DHT22;6121;49.810;6.418;2023-08-12T07:24:29;21.70;99.90
12115;DHT22;6121;49.810;6.418;2023-08-12T07:26:55;21.70;99.90
12115;DHT22;6121;49.810;6.418;2023-08-12T07:29:21;21.80;99.90
12115;DHT22;6121;49.810;6.418;2023-08-12T07:31:47;21.80;99.90
12115;DHT22;6121;49.810;6.418;2023-08-12T07:34:12;22.00;99.90
12115;DHT22;6121;49.810;6.418;2023-08-12T07:36:39;22.10;99.90
12115;DHT22;6121;49.810;6.418;2023-08-12T07:39:06;22.00;99.90
12115;DHT22;6121;49.810;6.418;2023-08-12T07:41:32;22.10;99.90
12115;DHT22;6121;49.810;6.418;2023-08-12T07:43:58;22.20;99.90
12115;DHT22;6121;49.810;6.418;2023-08-12T07:46:24;22.10;99.90
12115;DHT22;6121;49.810;6.418;2023-08-12T07:48:50;22.30;99.90
12115;DHT22;6121;49.810;6.418;2023-08-12T07:51:16;22.40;99.90
12115;DHT22;6121;49.810;6.418;2023-08-12T07:53:42;22.40;99.90
12115;DHT22;6121;49.810;6.418;2023-08-12T07:56:08;22.40;99.90
12115;DHT22;6121;49.810;6.418;2023-08-12T07:58:34;22.50;99.90
12115;DHT22;6121;49.810;6.418;2023-08-12T08:01:00;22.50;99.90
12115;DHT22;6121;49.810;6.418;2023-08-12T08:03:25;22.40;99.90
12115;DHT22;6121;49.810;6.418;2023-08-12T08:05:51;22.30;99.90
12115;DHT22;6121;49.810;6.418;2023-08-12T08:08:18;22.50;99.90
12115;DHT22;6121;49.810;6.418;2023-08-12T08:10:45;22.60;99.90
12115;DHT22;6121;49.810;6.418;2023-08-12T08:13:11;22.60;99.90
12115;DHT22;6121;49.810;6.418;2023-08-12T08:15:37;22.70;99.90
12115;DHT22;6121;49.810;6.418;2023-08-12T08:18:03;22.60;99.90
12115;DHT22;6121;49.810;6.418;2023-08-12T08:20:30;22.70;99.90
12115;DHT22;6121;49.810;6.418;2023-08-12T08:22:56;22.70;99.90
12115;DHT22;6121;49.810;6.418;2023-08-12T08:25:22;22.80;99.90
12115;DHT22;6121;49.810;6.418;2023-08-12T08:27:48;22.90;99.90
12115;DHT22;6121;49.810;6.418;2023-08-12T08:30:14;23.10;99.90
12115;DHT22;6121;49.810;6.418;2023-08-12T08:32:40;23.40;99.90
12115;DHT22;6121;49.810;6.418;2023-08-12T08:35:06;23.70;99.90
12115;DHT22;6121;49.810;6.418;2023-08-12T08:37:32;23.90;99.90
12115;DHT22;6121;49.810;6.418;2023-08-12T08:39:57;23.90;99.90
12115;DHT22;6121;49.810;6.418;2023-08-12T08:42:24;23.80;99.90
12115;DHT22;6121;49.810;6.418;2023-08-12T08:44:52;23.60;99.90
12115;DHT22;6121;49.810;6.418;2023-08-12T08:47:26;23.80;99.90
12115;DHT22;6121;49.810;6.418;2023-08-12T08:49:54;23.90;99.90
12115;DHT22;6121;49.810;6.418;2023-08-12T08:52:22;24.00;99.90
12115;DHT22;6121;49.810;6.418;2023-08-12T08:54:49;24.00;99.90
12115;DHT22;6121;49.810;6.418;2023-08-12T08:57:15;24.10;99.90
12115;DHT22;6121;49.810;6.418;2023-08-12T08:59:41;24.00;99.90
12115;DHT22;6121;49.810;6.418;2023-08-12T09:02:15;24.10;99.90
12115;DHT22;6121;49.810;6.418;2023-08-12T09:04:45;24.10;99.90
12115;DHT22;6121;49.810;6.418;2023-08-12T09:07:12;24.10;99.90
12115;DHT22;6121;49.810;6.418;2023-08-12T09:09:44;24.20;99.90
12115;DHT22;6121;49.810;6.418;2023-08-12T09:12:13;24.00;99.90
12115;DHT22;6121;49.810;6.418;2023-08-12T09:14:39;24.10;99.90
12115;DHT22;6121;49.810;6.418;2023-08-12T09:17:05;24.20;99.90
12115;DHT22;6121;49.810;6.418;2023-08-12T09:19:31;24.20;99.90
12115;DHT22;6121;49.810;6.418;2023-08-12T09:21:58;24.10;99.90
12115;DHT22;6121;49.810;6.418;2023-08-12T09:24:27;23.90;99.90
12115;DHT22;6121;49.810;6.418;2023-08-12T09:26:54;23.90;99.90
12115;DHT22;6121;49.810;6.418;2023-08-12T09:29:39;24.00;99.90
12115;DHT22;6121;49.810;6.418;2023-08-12T09:32:19;24.00;99.90
12115;DHT22;6121;49.810;6.418;2023-08-12T09:34:52;24.10;99.90
12115;DHT22;6121;49.810;6.418;2023-08-12T09:37:19;24.20;99.90
12115;DHT22;6121;49.810;6.418;2023-08-12T09:39:47;24.30;99.90
12115;DHT22;6121;49.810;6.418;2023-08-12T09:42:15;24.20;99.90
12115;DHT22;6121;49.810;6.418;2023-08-12T09:44:41;24.10;99.90
12115;DHT22;6121;49.810;6.418;2023-08-12T09:47:07;24.20;99.90
12115;DHT22;6121;49.810;6.418;2023-08-12T09:49:34;24.20;99.90
12115;DHT22;6121;49.810;6.418;2023-08-12T09:52:04;24.20;99.90
12115;DHT22;6121;49.810;6.418;2023-08-12T09:54:34;24.20;99.90
12115;DHT22;6121;49.810;6.418;2023-08-12T09:57:01;24.20;99.90
12115;DHT22;6121;49.810;6.418;2023-08-12T09:59:31;24.00;99.90
12115;DHT22;6121;49.810;6.418;2023-08-12T10:02:01;23.90;99.90
12115;DHT22;6121;49.810;6.418;2023-08-12T10:04:53;23.90;99.90
12115;DHT22;6121;49.810;6.418;2023-08-12T10:07:23;23.80;99.90
12115;DHT22;6121;49.810;6.418;2023-08-12T10:09:49;23.80;99.90
12115;DHT22;6121;49.810;6.418;2023-08-12T10:12:15;23.80;99.90
12115;DHT22;6121;49.810;6.418;2023-08-12T10:14:42;23.70;99.90
12115;DHT22;6121;49.810;6.418;2023-08-12T10:17:08;23.70;99.90
12115;DHT22;6121;49.810;6.418;2023-08-12T10:19:36;23.60;99.90
12115;DHT22;6121;49.810;6.418;2023-08-12T10:22:03;23.30;99.90
12115;DHT22;6121;49.810;6.418;2023-08-12T10:24:29;23.30;99.90
12115;DHT22;6121;49.810;6.418;2023-08-12T10:26:55;23.30;99.90
12115;DHT22;6121;49.810;6.418;2023-08-12T10:29:24;23.20;99.90
12115;DHT22;6121;49.810;6.418;2023-08-12T10:31:51;23.20;99.90
12115;DHT22;6121;49.810;6.418;2023-08-12T10:34:21;23.30;99.90
12115;DHT22;6121;49.810;6.418;2023-08-12T10:36:48;23.40;99.90
12115;DHT22;6121;49.810;6.418;2023-08-12T10:39:21;23.60;99.90
12115;DHT22;6121;49.810;6.418;2023-08-12T10:41:50;23.90;99.90
12115;DHT22;6121;49.810;6.418;2023-08-12T10:44:20;24.20;99.90
12115;DHT22;6121;49.810;6.418;2023-08-12T10:46:51;24.40;99.90
12115;DHT22;6121;49.810;6.418;2023-08-12T10:49:19;24.60;99.90
12115;DHT22;6121;49.810;6.418;2023-08-12T10:51:50;24.70;99.90
12115;DHT22;6121;49.810;6.418;2023-08-12T10:54:27;25.00;99.90
12115;DHT22;6121;49.810;6.418;2023-08-12T10:59:52;25.70;99.90
12115;DHT22;6121;49.810;6.418;2023-08-12T11:02:27;25.40;99.90
12115;DHT22;6121;49.810;6.418;2023-08-12T11:07:22;25.20;99.90
12115;DHT22;6121;49.810;6.418;2023-08-12T11:09:52;24.90;99.90
12115;DHT22;6121;49.810;6.418;2023-08-12T11:12:28;24.90;99.90
12115;DHT22;6121;49.810;6.418;2023-08-12T11:14:54;25.00;99.90
12115;DHT22;6121;49.810;6.418;2023-08-12T11:17:32;24.90;99.90
12115;DHT22;6121;49.810;6.418;2023-08-12T11:19:59;25.40;99.90
12115;DHT22;6121;49.810;6.418;2023-08-12T11:22:25;26.20;99.90
12115;DHT22;6121;49.810;6.418;2023-08-12T11:24:52;26.60;99.90
12115;DHT22;6121;49.810;6.418;2023-08-12T11:27:18;27.00;99.90
12115;DHT22;6121;49.810;6.418;2023-08-12T11:29:44;27.00;99.90
12115;DHT22;6121;49.810;6.418;2023-08-12T11:32:10;27.10;99.90
12115;DHT22;6121;49.810;6.418;2023-08-12T11:34:37;27.00;99.90
12115;DHT22;6121;49.810;6.418;2023-08-12T11:37:03;26.70;99.90
12115;DHT22;6121;49.810;6.418;2023-08-12T11:39:29;26.80;99.90
12115;DHT22;6121;49.810;6.418;2023-08-12T11:41:55;26.60;99.90
12115;DHT22;6121;49.810;6.418;2023-08-12T11:44:22;26.80;99.90
12115;DHT22;6121;49.810;6.418;2023-08-12T11:46:49;26.90;99.90
12115;DHT22;6121;49.810;6.418;2023-08-12T11:49:15;27.00;99.90
12115;DHT22;6121;49.810;6.418;2023-08-12T11:51:42;26.80;99.90
12115;DHT22;6121;49.810;6.418;2023-08-12T11:54:09;26.70;99.90
12115;DHT22;6121;49.810;6.418;2023-08-12T11:56:35;26.40;99.90
12115;DHT22;6121;49.810;6.418;2023-08-12T11:59:01;26.30;99.90
12115;DHT22;6121;49.810;6.418;2023-08-12T12:01:27;26.00;99.90
12115;DHT22;6121;49.810;6.418;2023-08-12T12:03:54;25.70;99.90
12115;DHT22;6121;49.810;6.418;2023-08-12T12:06:30;25.70;99.90
12115;DHT22;6121;49.810;6.418;2023-08-12T12:09:00;25.70;99.90
12115;DHT22;6121;49.810;6.418;2023-08-12T12:11:27;25.90;99.90
12115;DHT22;6121;49.810;6.418;2023-08-12T12:13:52;25.90;99.90
12115;DHT22;6121;49.810;6.418;2023-08-12T12:16:18;25.70;99.90
12115;DHT22;6121;49.810;6.418;2023-08-12T12:18:44;25.40;99.90
12115;DHT22;6121;49.810;6.418;2023-08-12T12:21:10;25.60;99.90
12115;DHT22;6121;49.810;6.418;2023-08-12T12:23:37;25.40;99.90
12115;DHT22;6121;49.810;6.418;2023-08-12T12:26:03;25.20;99.90
12115;DHT22;6121;49.810;6.418;2023-08-12T12:28:30;25.10;99.90
12115;DHT22;6121;49.810;6.418;2023-08-12T12:30:56;24.90;99.90
12115;DHT22;6121;49.810;6.418;2023-08-12T12:33:22;24.70;99.90
12115;DHT22;6121;49.810;6.418;2023-08-12T12:35:48;24.80;99.90
12115;DHT22;6121;49.810;6.418;2023-08-12T12:38:13;25.00;99.90
12115;DHT22;6121;49.810;6.418;2023-08-12T12:40:39;25.10;99.90
12115;DHT22;6121;49.810;6.418;2023-08-12T12:43:05;25.10;99.90
12115;DHT22;6121;49.810;6.418;2023-08-12T12:45:31;25.10;99.90
12115;DHT22;6121;49.810;6.418;2023-08-12T12:47:56;25.00;99.90
12115;DHT22;6121;49.810;6.418;2023-08-12T12:50:22;24.90;99.90
12115;DHT22;6121;49.810;6.418;2023-08-12T12:52:48;25.00;99.90
12115;DHT22;6121;49.810;6.418;2023-08-12T12:55:14;25.10;99.90
12115;DHT22;6121;49.810;6.418;2023-08-12T12:57:40;25.10;99.90
12115;DHT22;6121;49.810;6.418;2023-08-12T13:00:06;25.10;99.90
12115;DHT22;6121;49.810;6.418;2023-08-12T13:02:37;25.10;99.90
12115;DHT22;6121;49.810;6.418;2023-08-12T13:05:03;25.10;99.90
12115;DHT22;6121;49.810;6.418;2023-08-12T13:07:29;24.90;99.90
12115;DHT22;6121;49.810;6.418;2023-08-12T13:09:55;25.00;99.90
12115;DHT22;6121;49.810;6.418;2023-08-12T13:12:20;24.80;99.90
12115;DHT22;6121;49.810;6.418;2023-08-12T13:14:46;24.80;99.90
12115;DHT22;6121;49.810;6.418;2023-08-12T13:17:12;24.80;99.90
12115;DHT22;6121;49.810;6.418;2023-08-12T13:19:38;24.90;99.90
12115;DHT22;6121;49.810;6.418;2023-08-12T13:22:04;24.90;99.90
12115;DHT22;6121;49.810;6.418;2023-08-12T13:24:30;24.80;99.90
12115;DHT22;6121;49.810;6.418;2023-08-12T13:26:55;24.70;99.90
12115;DHT22;6121;49.810;6.418;2023-08-12T13:29:22;24.70;99.90
12115;DHT22;6121;49.810;6.418;2023-08-12T13:31:48;24.70;99.90
12115;DHT22;6121;49.810;6.418;2023-08-12T13:34:14;24.60;99.90
12115;DHT22;6121;49.810;6.418;2023-08-12T13:36:40;24.60;99.90
12115;DHT22;6121;49.810;6.418;2023-08-12T13:39:06;24.40;99.90
12115;DHT22;6121;49.810;6.418;2023-08-12T13:41:32;24.40;99.90
12115;DHT22;6121;49.810;6.418;2023-08-12T13:43:57;24.30;99.90
12115;DHT22;6121;49.810;6.418;2023-08-12T13:46:23;24.20;99.90
12115;DHT22;6121;49.810;6.418;2023-08-12T13:48:49;24.20;99.90
12115;DHT22;6121;49.810;6.418;2023-08-12T13:51:15;24.30;99.90
12115;DHT22;6121;49.810;6.418;2023-08-12T13:53:41;24.10;99.90
12115;DHT22;6121;49.810;6.418;2023-08-12T13:56:06;23.90;99.90
12115;DHT22;6121;49.810;6.418;2023-08-12T13:58:32;23.80;99.90
12115;DHT22;6121;49.810;6.418;2023-08-12T14:00:58;23.70;99.90
12115;DHT22;6121;49.810;6.418;2023-08-12T14:03:24;23.80;99.90
12115;DHT22;6121;49.810;6.418;2023-08-12T14:05:50;23.80;99.90
12115;DHT22;6121;49.810;6.418;2023-08-12T14:08:16;23.80;99.90
12115;DHT22;6121;49.810;6.418;2023-08-12T14:10:41;23.80;99.90
12115;DHT22;6121;49.810;6.418;2023-08-12T14:13:07;23.80;99.90
12115;DHT22;6121;49.810;6.418;2023-08-12T14:15:33;23.90;99.90
12115;DHT22;6121;49.810;6.418;2023-08-12T14:18:00;24.20;99.90
12115;DHT22;6121;49.810;6.418;2023-08-12T14:20:26;24.00;99.90
12115;DHT22;6121;49.810;6.418;2023-08-12T14:22:52;24.10;99.90
12115;DHT22;6121;49.810;6.418;2023-08-12T14:25:18;24.30;99.90
12115;DHT22;6121;49.810;6.418;2023-08-12T14:27:44;24.50;99.90
12115;DHT22;6121;49.810;6.418;2023-08-12T14:30:10;24.70;99.90
12115;DHT22;6121;49.810;6.418;2023-08-12T14:32:36;24.70;99.90
12115;DHT22;6121;49.810;6.418;2023-08-12T14:35:03;24.70;99.90
12115;DHT22;6121;49.810;6.418;2023-08-12T14:37:28;24.80;99.90
12115;DHT22;6121;49.810;6.418;2023-08-12T14:39:55;24.80;99.90
12115;DHT22;6121;49.810;6.418;2023-08-12T14:42:21;24.90;99.90
12115;DHT22;6121;49.810;6.418;2023-08-12T14:44:47;25.00;99.90
12115;DHT22;6121;49.810;6.418;2023-08-12T14:47:12;25.10;99.90
12115;DHT22;6121;49.810;6.418;2023-08-12T14:49:38;25.00;99.90
12115;DHT22;6121;49.810;6.418;2023-08-12T14:52:04;25.00;99.90
12115;DHT22;6121;49.810;6.418;2023-08-12T14:54:30;25.10;99.90
12115;DHT22;6121;49.810;6.418;2023-08-12T14:56:56;25.10;99.90
12115;DHT22;6121;49.810;6.418;2023-08-12T14:59:21;25.10;99.90
12115;DHT22;6121;49.810;6.418;2023-08-12T15:01:47;25.10;99.90
12115;DHT22;6121;49.810;6.418;2023-08-12T15:04:13;25.20;99.90
12115;DHT22;6121;49.810;6.418;2023-08-12T15:06:39;25.10;99.90
12115;DHT22;6121;49.810;6.418;2023-08-12T15:09:05;25.10;99.90
12115;DHT22;6121;49.810;6.418;2023-08-12T15:11:30;25.20;99.90
12115;DHT22;6121;49.810;6.418;2023-08-12T15:13:56;25.20;99.90
12115;DHT22;6121;49.810;6.418;2023-08-12T15:16:23;25.30;99.90
12115;DHT22;6121;49.810;6.418;2023-08-12T15:18:48;25.40;99.90
12115;DHT22;6121;49.810;6.418;2023-08-12T15:21:14;25.50;99.90
12115;DHT22;6121;49.810;6.418;2023-08-12T15:23:41;25.60;99.90
12115;DHT22;6121;49.810;6.418;2023-08-12T15:26:07;25.60;99.90
12115;DHT22;6121;49.810;6.418;2023-08-12T15:28:49;25.50;99.90
12115;DHT22;6121;49.810;6.418;2023-08-12T15:31:16;25.50;99.90
12115;DHT22;6121;49.810;6.418;2023-08-12T15:33:42;25.40;99.90
12115;DHT22;6121;49.810;6.418;2023-08-12T15:36:07;25.30;99.90
12115;DHT22;6121;49.810;6.418;2023-08-12T15:38:33;25.30;99.90
12115;DHT22;6121;49.810;6.418;2023-08-12T15:41:00;25.40;99.90
12115;DHT22;6121;49.810;6.418;2023-08-12T15:43:26;25.50;99.90
12115;DHT22;6121;49.810;6.418;2023-08-12T15:45:52;25.50;99.90
12115;DHT22;6121;49.810;6.418;2023-08-12T15:48:18;25.40;99.90